Accueil
METAR-TAF:

METAR-TAF

Aéroports :

Aéroport Châlons-Vatry

Châlons-en-Champagne, France

latitude: 48-46-34N, longitude: 004-11-04E, altitude: 179 m

Observation

Le bulletin a été fait il y a 21 minutes, à 05:30 UTC
Vent 8 kt de nord/nord-est
Température -4°C
Humidité 93%
Pression 1021 hPa
Visibilité: 7000 m

METAR: LFOK 080530Z AUTO 03008KT 7000 NSC M04/M05 Q1021 NOSIG

Heure: 06:51 (05:51 UTC)

Prévision

Le bulletin a été fait il y a 51 minutes, à 05:00 UTC
Prévision valable du 08 à 06 UTC au 09 à 06 UTC
Vent 8 kt de nord/nord-est
Visibilité 10 km ou plus
pas de nuages en-dessous de 1500 mètres et pas de cumulonimbus.

TAF: LFOK 080500Z 0806/0906 03008KT CAVOK

Observations et prévisions météorologiques de plus de 4000 aéroports (messages METAR et TAF).

Les stations disponibles sont représentées par des disques jaunes et rouges sur la carte.

Passer la souris dessus pour voir le nom de la station.

Cliquer dessus pour voir les observations et prévisions météorologiques.

Pour changer de carte: cliquez sur les boutons verts avec une croix noire pour zoomer, sur le bouton vert avec un tiret pour effectuer un zoom arrière, ou sur les flèches vertes pour les cartes adjacentes.


METAR-TAF: